createdAt,value
2022-08-01T00:00:03.038Z,1007.49
2022-08-01T00:01:03.432Z,1007.51
2022-08-01T00:02:03.414Z,1007.50
2022-08-01T00:03:02.762Z,1007.48
2022-08-01T00:04:03.152Z,1007.50
2022-08-01T00:05:02.907Z,1007.45
2022-08-01T00:06:03.205Z,1007.46
2022-08-01T00:07:03.527Z,1007.44
2022-08-01T00:08:03.938Z,1007.41
2022-08-01T00:09:03.627Z,1007.43
2022-08-01T00:10:03.949Z,1007.43
2022-08-01T00:11:03.638Z,1007.41
2022-08-01T00:12:03.151Z,1007.43
2022-08-01T00:13:02.777Z,1007.45
2022-08-01T00:14:03.157Z,1007.46
2022-08-01T00:15:02.847Z,1007.44
2022-08-01T00:16:03.153Z,1007.42
2022-08-01T00:17:07.221Z,1007.41
2022-08-01T00:18:03.778Z,1007.39
2022-08-01T00:19:03.194Z,1007.39
2022-08-01T00:20:03.771Z,1007.37
2022-08-01T00:21:03.343Z,1007.36
2022-08-01T00:22:04.179Z,1007.39
2022-08-01T00:23:04.073Z,1007.34
2022-08-01T00:24:03.464Z,1007.36
2022-08-01T00:25:03.677Z,1007.38
2022-08-01T00:26:03.989Z,1007.34
2022-08-01T00:27:03.302Z,1007.36
2022-08-01T00:28:04.163Z,1007.36
2022-08-01T00:29:03.044Z,1007.39
2022-08-01T00:30:11.449Z,1007.34
2022-08-01T00:31:03.148Z,1007.32
2022-08-01T00:32:03.875Z,1007.32
2022-08-01T00:33:03.172Z,1007.33
2022-08-01T00:34:03.805Z,1007.34
2022-08-01T00:35:03.485Z,1007.35
2022-08-01T00:36:03.384Z,1007.34
2022-08-01T00:37:03.768Z,1007.33
2022-08-01T00:38:04.052Z,1007.34
2022-08-01T00:39:03.620Z,1007.32
2022-08-01T00:40:04.106Z,1007.37
2022-08-01T00:41:03.730Z,1007.38
2022-08-01T00:42:03.370Z,1007.42
2022-08-01T00:43:03.371Z,1007.37
2022-08-01T00:44:03.144Z,1007.38
2022-08-01T00:45:02.849Z,1007.39
2022-08-01T00:46:03.209Z,1007.36
2022-08-01T00:47:03.410Z,1007.37
2022-08-01T00:48:03.318Z,1007.40
2022-08-01T00:49:03.791Z,1007.31
2022-08-01T00:50:03.632Z,1007.32
2022-08-01T00:51:03.390Z,1007.36
2022-08-01T00:52:04.209Z,1007.34
2022-08-01T00:53:03.666Z,1007.34
2022-08-01T00:54:04.022Z,1007.36
2022-08-01T00:55:03.868Z,1007.36
2022-08-01T00:56:03.951Z,1007.32
2022-08-01T00:57:02.916Z,1007.30
2022-08-01T00:58:06.111Z,1007.30
2022-08-01T00:59:03.133Z,1007.33
2022-08-01T01:00:03.488Z,1007.31
2022-08-01T01:01:03.311Z,1007.29
2022-08-01T01:02:03.837Z,1007.29
2022-08-01T01:03:03.242Z,1007.32
2022-08-01T01:04:08.311Z,1007.28
2022-08-01T01:05:03.285Z,1007.29
2022-08-01T01:06:03.670Z,1007.30
2022-08-01T01:07:04.071Z,1007.31
2022-08-01T01:08:03.794Z,1007.28
2022-08-01T01:09:04.165Z,1007.31
2022-08-01T01:10:03.745Z,1007.35
2022-08-01T01:11:04.107Z,1007.37
2022-08-01T01:12:03.918Z,1007.31
2022-08-01T01:13:03.128Z,1007.32
2022-08-01T01:14:03.501Z,1007.31
2022-08-01T01:15:03.596Z,1007.38
2022-08-01T01:16:03.191Z,1007.32
2022-08-01T01:17:04.251Z,1007.31
2022-08-01T01:18:03.915Z,1007.35
2022-08-01T01:19:04.201Z,1007.37
2022-08-01T01:20:04.041Z,1007.33
2022-08-01T01:21:03.757Z,1007.33
2022-08-01T01:22:04.334Z,1007.32
2022-08-01T01:23:04.515Z,1007.33
2022-08-01T01:24:04.214Z,1007.30
2022-08-01T01:25:04.496Z,1007.31
2022-08-01T01:26:04.096Z,1007.31
2022-08-01T01:27:04.329Z,1007.32
2022-08-01T01:28:04.172Z,1007.31
2022-08-01T01:29:04.482Z,1007.33
2022-08-01T01:30:04.262Z,1007.38
2022-08-01T01:31:04.239Z,1007.40
2022-08-01T01:32:04.103Z,1007.36
2022-08-01T01:33:03.750Z,1007.37
2022-08-01T01:34:03.590Z,1007.36
2022-08-01T01:35:03.190Z,1007.33
2022-08-01T01:36:03.665Z,1007.35
2022-08-01T01:37:04.002Z,1007.35
2022-08-01T01:38:03.691Z,1007.37
2022-08-01T01:39:03.993Z,1007.35
2022-08-01T01:40:03.873Z,1007.38
2022-08-01T01:41:03.852Z,1007.38
2022-08-01T01:42:04.392Z,1007.42
2022-08-01T01:43:04.014Z,1007.37
2022-08-01T01:44:03.651Z,1007.37
2022-08-01T01:45:04.007Z,1007.38
2022-08-01T01:46:03.960Z,1007.39
2022-08-01T01:47:04.010Z,1007.41
2022-08-01T01:48:04.345Z,1007.41
2022-08-01T01:49:03.942Z,1007.46
2022-08-01T01:50:04.308Z,1007.46
2022-08-01T01:51:03.892Z,1007.44
2022-08-01T01:52:04.117Z,1007.45
2022-08-01T01:53:03.829Z,1007.50
2022-08-01T01:54:03.480Z,1007.48
2022-08-01T01:55:03.810Z,1007.51
2022-08-01T01:56:03.844Z,1007.49
2022-08-01T01:57:04.212Z,1007.51
2022-08-01T01:58:03.729Z,1007.51
2022-08-01T01:59:03.941Z,1007.49
2022-08-01T02:00:03.590Z,1007.51
2022-08-01T02:01:04.231Z,1007.52
2022-08-01T02:02:05.948Z,1007.51
2022-08-01T02:03:03.462Z,1007.54
2022-08-01T02:04:03.169Z,1007.50
2022-08-01T02:05:03.459Z,1007.47
2022-08-01T02:06:03.023Z,1007.49
2022-08-01T02:07:04.213Z,1007.47
2022-08-01T02:08:03.891Z,1007.43
2022-08-01T02:09:04.235Z,1007.45
2022-08-01T02:10:03.753Z,1007.44
2022-08-01T02:11:04.105Z,1007.49
2022-08-01T02:12:08.924Z,1007.49
2022-08-01T02:13:03.797Z,1007.45
2022-08-01T02:14:04.318Z,1007.51
2022-08-01T02:15:04.012Z,1007.47
2022-08-01T02:16:04.093Z,1007.43
2022-08-01T02:17:04.078Z,1007.45
2022-08-01T02:18:04.021Z,1007.46
2022-08-01T02:19:03.551Z,1007.48
2022-08-01T02:20:03.906Z,1007.46
2022-08-01T02:21:03.546Z,1007.50
2022-08-01T02:22:04.815Z,1007.47
2022-08-01T02:23:04.441Z,1007.45
2022-08-01T02:24:05.942Z,1007.45
2022-08-01T02:25:03.883Z,1007.46
2022-08-01T02:26:10.395Z,1007.43
2022-08-01T02:27:04.139Z,1007.46
2022-08-01T02:28:04.229Z,1007.48
2022-08-01T02:29:04.517Z,1007.52
2022-08-01T02:30:04.045Z,1007.47
2022-08-01T02:31:04.223Z,1007.44
2022-08-01T02:32:03.832Z,1007.45
2022-08-01T02:33:04.069Z,1007.47
2022-08-01T02:34:03.662Z,1007.42
2022-08-01T02:35:03.862Z,1007.49
2022-08-01T02:36:30.094Z,1007.48
2022-08-01T02:37:03.840Z,1007.45
2022-08-01T02:38:04.207Z,1007.44
2022-08-01T02:39:03.904Z,1007.43
2022-08-01T02:40:04.267Z,1007.42
2022-08-01T02:41:03.820Z,1007.41
2022-08-01T02:42:04.267Z,1007.41
2022-08-01T02:43:04.325Z,1007.38
2022-08-01T02:44:04.511Z,1007.39
2022-08-01T02:45:04.218Z,1007.41
2022-08-01T02:46:04.556Z,1007.43
2022-08-01T02:47:04.239Z,1007.42
2022-08-01T02:48:04.213Z,1007.43
2022-08-01T02:49:04.660Z,1007.48
2022-08-01T02:50:04.402Z,1007.45
2022-08-01T02:51:05.056Z,1007.43
2022-08-01T02:52:03.852Z,1007.44
2022-08-01T02:53:03.639Z,1007.40
2022-08-01T02:54:03.977Z,1007.43
2022-08-01T02:55:03.620Z,1007.43
2022-08-01T02:56:04.166Z,1007.45
2022-08-01T02:57:03.875Z,1007.44
2022-08-01T02:58:04.269Z,1007.41
2022-08-01T02:59:03.882Z,1007.41
2022-08-01T03:00:04.225Z,1007.45
2022-08-01T03:01:04.216Z,1007.43
2022-08-01T03:02:04.466Z,1007.42
2022-08-01T03:03:04.328Z,1007.40
2022-08-01T03:04:04.018Z,1007.42
2022-08-01T03:05:04.339Z,1007.41
2022-08-01T03:06:04.050Z,1007.41
2022-08-01T03:07:04.392Z,1007.44
2022-08-01T03:08:04.729Z,1007.41
2022-08-01T03:09:04.396Z,1007.42
2022-08-01T03:10:04.776Z,1007.42
2022-08-01T03:11:04.471Z,1007.44
2022-08-01T03:12:04.242Z,1007.49
2022-08-01T03:13:03.667Z,1007.50
2022-08-01T03:14:03.660Z,1007.48
2022-08-01T03:15:04.221Z,1007.49
2022-08-01T03:16:03.978Z,1007.52
2022-08-01T03:17:04.189Z,1007.50
2022-08-01T03:18:04.076Z,1007.52
2022-08-01T03:19:04.111Z,1007.51
2022-08-01T03:20:04.696Z,1007.48
2022-08-01T03:21:04.297Z,1007.48
2022-08-01T03:22:04.024Z,1007.48
2022-08-01T03:23:03.759Z,1007.46
2022-08-01T03:24:03.690Z,1007.47
2022-08-01T03:25:03.817Z,1007.44
2022-08-01T03:26:03.502Z,1007.47
2022-08-01T03:27:03.995Z,1007.50
2022-08-01T03:28:04.270Z,1007.49
2022-08-01T03:29:03.960Z,1007.48
2022-08-01T03:30:04.342Z,1007.50
2022-08-01T03:31:03.975Z,1007.51
2022-08-01T03:32:04.563Z,1007.46
2022-08-01T03:33:04.297Z,1007.54
2022-08-01T03:34:05.843Z,1007.46
2022-08-01T03:35:04.485Z,1007.51
2022-08-01T03:36:04.147Z,1007.50
2022-08-01T03:37:04.792Z,1007.51
2022-08-01T03:38:18.740Z,1007.49
2022-08-01T03:39:04.207Z,1007.54
2022-08-01T03:40:04.671Z,1007.50
2022-08-01T03:41:04.411Z,1007.51
2022-08-01T03:42:05.049Z,1007.55
2022-08-01T03:43:04.979Z,1007.53
2022-08-01T03:44:04.665Z,1007.54
2022-08-01T03:45:05.057Z,1007.55
2022-08-01T03:46:05.136Z,1007.54
2022-08-01T03:47:04.848Z,1007.52
2022-08-01T03:48:04.780Z,1007.53
2022-08-01T03:49:05.271Z,1007.46
2022-08-01T03:50:07.235Z,1007.50
2022-08-01T03:51:05.190Z,1007.55
2022-08-01T03:52:04.818Z,1007.59
2022-08-01T03:53:04.801Z,1007.58
2022-08-01T03:54:04.525Z,1007.57
2022-08-01T03:55:04.866Z,1007.57
2022-08-01T03:56:04.950Z,1007.55
2022-08-01T03:57:04.756Z,1007.53
2022-08-01T03:58:09.555Z,1007.60
2022-08-01T03:59:04.615Z,1007.57
2022-08-01T04:00:04.417Z,1007.57
2022-08-01T04:01:04.706Z,1007.59
2022-08-01T04:02:03.325Z,1007.59
2022-08-01T04:03:03.238Z,1007.59
2022-08-01T04:04:03.196Z,1007.58
2022-08-01T04:05:03.105Z,1007.60
2022-08-01T04:06:02.893Z,1007.55
2022-08-01T04:07:03.183Z,1007.57
2022-08-01T04:08:02.858Z,1007.59
2022-08-01T04:09:03.250Z,1007.61
2022-08-01T04:10:02.876Z,1007.59
2022-08-01T04:11:03.187Z,1007.60
2022-08-01T04:12:12.463Z,1007.60
2022-08-01T04:13:03.101Z,1007.60
2022-08-01T04:14:03.146Z,1007.61
2022-08-01T04:15:03.155Z,1007.58
2022-08-01T04:16:03.137Z,1007.62
2022-08-01T04:17:03.794Z,1007.58
2022-08-01T04:18:03.383Z,1007.61
2022-08-01T04:19:03.614Z,1007.54
2022-08-01T04:20:03.476Z,1007.59
2022-08-01T04:21:03.929Z,1007.62
2022-08-01T04:22:03.430Z,1007.62
2022-08-01T04:23:03.036Z,1007.58
2022-08-01T04:24:03.296Z,1007.59
2022-08-01T04:25:03.058Z,1007.59
2022-08-01T04:26:03.343Z,1007.59
2022-08-01T04:27:03.767Z,1007.61
2022-08-01T04:28:03.467Z,1007.59
2022-08-01T04:29:03.911Z,1007.64
2022-08-01T04:30:03.487Z,1007.61
2022-08-01T04:31:03.842Z,1007.61
2022-08-01T04:32:03.734Z,1007.62
2022-08-01T04:33:03.523Z,1007.64
2022-08-01T04:34:03.134Z,1007.66
2022-08-01T04:35:03.573Z,1007.68
2022-08-01T04:36:05.055Z,1007.66
2022-08-01T04:37:03.578Z,1007.71
2022-08-01T04:38:03.295Z,1007.65
2022-08-01T04:39:03.242Z,1007.67
2022-08-01T04:40:03.614Z,1007.66
2022-08-01T04:41:08.668Z,1007.69
2022-08-01T04:42:03.938Z,1007.69
2022-08-01T04:43:03.588Z,1007.74
2022-08-01T04:44:03.181Z,1007.72
2022-08-01T04:45:03.638Z,1007.71
2022-08-01T04:46:03.427Z,1007.73
2022-08-01T04:47:03.940Z,1007.72
2022-08-01T04:48:03.719Z,1007.75
2022-08-01T04:49:03.844Z,1007.74
2022-08-01T04:50:03.635Z,1007.74
2022-08-01T04:51:03.382Z,1007.75
2022-08-01T04:52:04.753Z,1007.76
2022-08-01T04:53:03.895Z,1007.77
2022-08-01T04:54:03.921Z,1007.80
2022-08-01T04:55:03.973Z,1007.84
2022-08-01T04:56:04.467Z,1007.81
2022-08-01T04:57:03.984Z,1007.86
2022-08-01T04:58:03.581Z,1007.84
2022-08-01T04:59:03.920Z,1007.83
2022-08-01T05:00:03.445Z,1007.82
2022-08-01T05:01:03.462Z,1007.78
2022-08-01T05:02:03.714Z,1007.81
2022-08-01T05:03:03.110Z,1007.78
2022-08-01T05:04:03.621Z,1007.77
2022-08-01T05:05:03.318Z,1007.80
2022-08-01T05:06:03.119Z,1007.75
2022-08-01T05:07:02.611Z,1007.78
2022-08-01T05:08:03.116Z,1007.82
2022-08-01T05:09:02.901Z,1007.82
2022-08-01T05:10:02.688Z,1007.83
2022-08-01T05:11:02.940Z,1007.87
2022-08-01T05:12:03.281Z,1007.88
2022-08-01T05:13:02.837Z,1007.86
2022-08-01T05:14:03.376Z,1007.87
2022-08-01T05:15:03.091Z,1007.89
2022-08-01T05:16:03.401Z,1007.90
2022-08-01T05:17:02.501Z,1007.90
2022-08-01T05:18:02.924Z,1007.90
2022-08-01T05:19:02.656Z,1007.87
2022-08-01T05:20:03.003Z,1007.88
2022-08-01T05:21:02.720Z,1007.91
2022-08-01T05:22:03.349Z,1007.92
2022-08-01T05:23:03.359Z,1007.93
2022-08-01T05:24:03.225Z,1007.91
2022-08-01T05:25:03.192Z,1007.91
2022-08-01T05:26:03.728Z,1007.91
2022-08-01T05:27:03.536Z,1007.93
2022-08-01T05:28:03.520Z,1007.93
2022-08-01T05:29:03.464Z,1007.91
2022-08-01T05:30:03.661Z,1007.92
2022-08-01T05:31:04.020Z,1007.93
2022-08-01T05:32:02.982Z,1007.95
2022-08-01T05:33:02.933Z,1007.98
2022-08-01T05:34:03.173Z,1007.98
2022-08-01T05:35:03.149Z,1007.95
2022-08-01T05:36:02.863Z,1007.99
2022-08-01T05:37:03.093Z,1008.02
2022-08-01T05:38:03.311Z,1007.98
2022-08-01T05:39:03.299Z,1008.00
2022-08-01T05:40:03.478Z,1008.02
2022-08-01T05:41:03.120Z,1008.04
2022-08-01T05:42:03.965Z,1008.00
2022-08-01T05:43:03.594Z,1007.98
2022-08-01T05:44:03.392Z,1007.98
2022-08-01T05:45:03.692Z,1007.98
2022-08-01T05:46:03.829Z,1008.00
2022-08-01T05:47:03.563Z,1007.99
2022-08-01T05:48:03.991Z,1008.02
2022-08-01T05:49:03.804Z,1008.01
2022-08-01T05:50:03.617Z,1008.00
2022-08-01T05:51:04.062Z,1008.02
2022-08-01T05:52:03.868Z,1008.01
2022-08-01T05:53:03.411Z,1008.02
2022-08-01T05:54:03.042Z,1008.04
2022-08-01T05:55:03.334Z,1008.03
2022-08-01T05:56:03.133Z,1008.01
2022-08-01T05:57:03.855Z,1008.02
2022-08-01T05:58:03.730Z,1008.00
2022-08-01T05:59:04.056Z,1008.04
2022-08-01T06:00:03.883Z,1008.06
2022-08-01T06:01:03.799Z,1008.10
2022-08-01T06:02:03.689Z,1008.07
2022-08-01T06:03:03.006Z,1008.13
2022-08-01T06:04:03.659Z,1008.10
2022-08-01T06:05:03.054Z,1008.10
2022-08-01T06:06:03.066Z,1008.11
2022-08-01T06:07:02.526Z,1008.10
2022-08-01T06:08:02.241Z,1008.13
2022-08-01T06:09:02.836Z,1008.12
2022-08-01T06:10:02.913Z,1008.11
2022-08-01T06:11:02.663Z,1008.12
2022-08-01T06:12:03.422Z,1008.15
2022-08-01T06:13:03.091Z,1008.12
2022-08-01T06:14:03.182Z,1008.12
2022-08-01T06:15:03.561Z,1008.13
2022-08-01T06:16:03.113Z,1008.10
2022-08-01T06:17:02.655Z,1008.11
2022-08-01T06:18:02.928Z,1008.12
2022-08-01T06:19:02.768Z,1008.11
2022-08-01T06:20:02.898Z,1008.14
2022-08-01T06:21:02.709Z,1008.14
2022-08-01T06:22:03.112Z,1008.21
2022-08-01T06:23:16.991Z,1008.19
2022-08-01T06:24:02.961Z,1008.21
2022-08-01T06:25:02.870Z,1008.19
2022-08-01T06:26:03.153Z,1008.21
2022-08-01T06:27:03.393Z,1008.24
2022-08-01T06:28:03.531Z,1008.26
2022-08-01T06:29:03.804Z,1008.25
2022-08-01T06:30:03.363Z,1008.25
2022-08-01T06:31:03.797Z,1008.24
2022-08-01T06:32:03.100Z,1008.26
2022-08-01T06:33:02.615Z,1008.25
2022-08-01T06:34:02.508Z,1008.22
2022-08-01T06:35:02.564Z,1008.22
2022-08-01T06:36:02.611Z,1008.22
2022-08-01T06:37:06.256Z,1008.20
2022-08-01T06:38:02.919Z,1008.21
2022-08-01T06:39:03.317Z,1008.18
2022-08-01T06:40:03.137Z,1008.19
2022-08-01T06:41:02.877Z,1008.17
2022-08-01T06:42:03.801Z,1008.15
2022-08-01T06:43:03.533Z,1008.10
2022-08-01T06:44:03.436Z,1008.17
2022-08-01T06:45:03.284Z,1008.18
2022-08-01T06:46:03.711Z,1008.20
2022-08-01T06:47:03.202Z,1008.19
2022-08-01T06:48:03.058Z,1008.23
2022-08-01T06:49:03.364Z,1008.18
2022-08-01T06:50:03.425Z,1008.22
2022-08-01T06:51:03.057Z,1008.22
2022-08-01T06:52:03.272Z,1008.21
2022-08-01T06:53:03.649Z,1008.20
2022-08-01T06:54:03.120Z,1008.18
2022-08-01T06:55:03.716Z,1008.17
2022-08-01T06:56:03.249Z,1008.18
2022-08-01T06:57:03.145Z,1008.20
2022-08-01T06:58:02.909Z,1008.21
2022-08-01T06:59:02.780Z,1008.19
2022-08-01T07:00:02.758Z,1008.23
2022-08-01T07:01:03.331Z,1008.20
2022-08-01T07:02:02.801Z,1008.22
2022-08-01T07:03:02.760Z,1008.18
2022-08-01T07:04:02.588Z,1008.18
2022-08-01T07:05:02.375Z,1008.19
2022-08-01T07:06:02.797Z,1008.21
2022-08-01T07:07:03.152Z,1008.18
2022-08-01T07:08:03.278Z,1008.23
2022-08-01T07:09:08.503Z,1008.20
2022-08-01T07:10:03.106Z,1008.19
2022-08-01T07:11:02.911Z,1008.14
2022-08-01T07:12:04.003Z,1008.15
2022-08-01T07:13:03.054Z,1008.16
2022-08-01T07:14:03.155Z,1008.13
2022-08-01T07:15:03.457Z,1008.13
2022-08-01T07:16:03.291Z,1008.12
2022-08-01T07:17:03.073Z,1008.14
2022-08-01T07:18:02.830Z,1008.18
2022-08-01T07:19:02.691Z,1008.17
2022-08-01T07:20:02.705Z,1008.18
2022-08-01T07:21:02.497Z,1008.19
2022-08-01T07:22:04.089Z,1008.20
2022-08-01T07:23:02.947Z,1008.23
2022-08-01T07:24:02.739Z,1008.23
2022-08-01T07:25:03.002Z,1008.23
2022-08-01T07:26:02.969Z,1008.23
2022-08-01T07:27:25.653Z,1008.25
2022-08-01T07:28:03.263Z,1008.24
2022-08-01T07:29:03.478Z,1008.26
2022-08-01T07:30:02.957Z,1008.30
2022-08-01T07:31:02.895Z,1008.29
2022-08-01T07:32:03.570Z,1008.30
2022-08-01T07:33:02.942Z,1008.30
2022-08-01T07:34:02.819Z,1008.31
2022-08-01T07:35:03.023Z,1008.30
2022-08-01T07:36:02.954Z,1008.28
2022-08-01T07:37:03.464Z,1008.31
2022-08-01T07:38:03.326Z,1008.28
2022-08-01T07:39:03.173Z,1008.31
2022-08-01T07:40:02.886Z,1008.32
2022-08-01T07:41:03.449Z,1008.35
2022-08-01T07:42:07.079Z,1008.33
2022-08-01T07:43:03.345Z,1008.36
2022-08-01T07:44:04.889Z,1008.33
2022-08-01T07:45:03.275Z,1008.37
2022-08-01T07:46:03.126Z,1008.37
2022-08-01T07:47:03.255Z,1008.42
2022-08-01T07:48:03.377Z,1008.42
2022-08-01T07:49:03.939Z,1008.41
2022-08-01T07:50:03.364Z,1008.40
2022-08-01T07:51:03.734Z,1008.40
2022-08-01T07:52:04.372Z,1008.38
2022-08-01T07:53:03.525Z,1008.44
2022-08-01T07:54:03.386Z,1008.43
2022-08-01T07:55:03.027Z,1008.42
2022-08-01T07:56:02.916Z,1008.41
2022-08-01T07:57:04.013Z,1008.41
2022-08-01T07:58:03.529Z,1008.39
2022-08-01T07:59:04.058Z,1008.37
2022-08-01T08:00:03.897Z,1008.41
2022-08-01T08:01:03.562Z,1008.43
2022-08-01T08:02:03.208Z,1008.38
2022-08-01T08:03:03.226Z,1008.39
2022-08-01T08:04:03.477Z,1008.37
2022-08-01T08:05:03.199Z,1008.38
2022-08-01T08:06:03.006Z,1008.43
2022-08-01T08:07:02.821Z,1008.39
2022-08-01T08:08:03.071Z,1008.42
2022-08-01T08:09:02.926Z,1008.40
2022-08-01T08:10:03.160Z,1008.39
2022-08-01T08:11:03.030Z,1008.41
2022-08-01T08:12:03.220Z,1008.42
2022-08-01T08:13:03.373Z,1008.42
2022-08-01T08:14:03.247Z,1008.42
2022-08-01T08:15:03.335Z,1008.42
2022-08-01T08:16:03.151Z,1008.45
2022-08-01T08:17:03.466Z,1008.43
2022-08-01T08:18:03.264Z,1008.45
2022-08-01T08:19:03.226Z,1008.49
2022-08-01T08:20:03.619Z,1008.45
2022-08-01T08:21:06.662Z,1008.45
2022-08-01T08:22:03.505Z,1008.45
2022-08-01T08:23:03.700Z,1008.45
2022-08-01T08:24:03.512Z,1008.46
2022-08-01T08:25:03.481Z,1008.48
2022-08-01T08:26:03.372Z,1008.52
2022-08-01T08:27:02.939Z,1008.51
2022-08-01T08:28:03.305Z,1008.50
2022-08-01T08:29:03.387Z,1008.46
2022-08-01T08:30:03.287Z,1008.47
2022-08-01T08:31:02.875Z,1008.46
2022-08-01T08:32:03.260Z,1008.50
2022-08-01T08:33:03.857Z,1008.46
2022-08-01T08:34:03.423Z,1008.52
2022-08-01T08:35:03.932Z,1008.49
2022-08-01T08:36:03.673Z,1008.52
2022-08-01T08:37:03.151Z,1008.54
2022-08-01T08:38:03.633Z,1008.54
2022-08-01T08:39:03.079Z,1008.55
2022-08-01T08:40:03.536Z,1008.60
2022-08-01T08:41:03.361Z,1008.54
2022-08-01T08:42:02.892Z,1008.55
2022-08-01T08:43:02.730Z,1008.57
2022-08-01T08:44:02.754Z,1008.56
2022-08-01T08:45:03.039Z,1008.61
2022-08-01T08:46:02.825Z,1008.56
2022-08-01T08:47:03.271Z,1008.58
2022-08-01T08:48:03.063Z,1008.58
2022-08-01T08:49:03.380Z,1008.60
2022-08-01T08:50:03.084Z,1008.66
2022-08-01T08:51:03.504Z,1008.62
2022-08-01T08:52:02.745Z,1008.67
2022-08-01T08:53:03.196Z,1008.65
2022-08-01T08:54:03.238Z,1008.67
2022-08-01T08:55:02.927Z,1008.67
2022-08-01T08:56:02.924Z,1008.63
2022-08-01T08:57:03.417Z,1008.65
2022-08-01T08:58:03.197Z,1008.63
2022-08-01T08:59:03.651Z,1008.65
2022-08-01T09:00:03.416Z,1008.68
2022-08-01T09:01:03.219Z,1008.70
2022-08-01T09:02:03.621Z,1008.69
2022-08-01T09:03:03.474Z,1008.70
2022-08-01T09:04:03.820Z,1008.69
2022-08-01T09:05:03.541Z,1008.69
2022-08-01T09:06:03.985Z,1008.72
2022-08-01T09:07:03.730Z,1008.75
2022-08-01T09:08:03.490Z,1008.75
2022-08-01T09:09:03.969Z,1008.77
2022-08-01T09:10:03.565Z,1008.77
2022-08-01T09:11:03.994Z,1008.76
2022-08-01T09:12:03.519Z,1008.72
2022-08-01T09:13:03.285Z,1008.73
2022-08-01T09:14:03.758Z,1008.75
2022-08-01T09:15:03.492Z,1008.71
2022-08-01T09:16:03.239Z,1008.73
2022-08-01T09:17:03.766Z,1008.73
2022-08-01T09:18:03.533Z,1008.73
2022-08-01T09:19:03.402Z,1008.75
2022-08-01T09:20:03.442Z,1008.77
2022-08-01T09:21:03.708Z,1008.79
2022-08-01T09:22:04.523Z,1008.77
2022-08-01T09:23:03.780Z,1008.79
2022-08-01T09:24:04.467Z,1008.79
2022-08-01T09:25:04.136Z,1008.80
2022-08-01T09:26:04.450Z,1008.79
2022-08-01T09:27:04.295Z,1008.77
2022-08-01T09:28:04.467Z,1008.77
2022-08-01T09:29:04.435Z,1008.80
2022-08-01T09:30:03.952Z,1008.78
2022-08-01T09:31:04.052Z,1008.83
2022-08-01T09:32:03.617Z,1008.87
2022-08-01T09:33:06.330Z,1008.87
2022-08-01T09:34:03.960Z,1008.84
2022-08-01T09:35:03.624Z,1008.80
2022-08-01T09:36:03.592Z,1008.79
2022-08-01T09:37:04.025Z,1008.77
2022-08-01T09:38:03.765Z,1008.74
2022-08-01T09:39:04.200Z,1008.74
2022-08-01T09:40:03.998Z,1008.76
2022-08-01T09:41:03.720Z,1008.74
2022-08-01T09:42:04.130Z,1008.74
2022-08-01T09:43:03.846Z,1008.76
2022-08-01T09:44:04.187Z,1008.76
2022-08-01T09:45:03.759Z,1008.75
2022-08-01T09:46:04.351Z,1008.75
2022-08-01T09:47:07.723Z,1008.75
2022-08-01T09:48:03.313Z,1008.74
2022-08-01T09:49:07.374Z,1008.75
2022-08-01T09:50:07.376Z,1008.69
2022-08-01T09:51:09.274Z,1008.71
2022-08-01T09:52:03.844Z,1008.76
2022-08-01T09:53:03.531Z,1008.76
2022-08-01T09:54:04.003Z,1008.73
2022-08-01T09:55:03.866Z,1008.68
2022-08-01T09:56:03.978Z,1008.72
2022-08-01T09:57:04.924Z,1008.67
2022-08-01T09:58:04.156Z,1008.70
2022-08-01T09:59:04.685Z,1008.71
2022-08-01T10:00:04.235Z,1008.66
2022-08-01T10:01:04.134Z,1008.69
2022-08-01T10:02:03.724Z,1008.68
2022-08-01T10:03:10.316Z,1008.65
2022-08-01T10:04:03.566Z,1008.67
2022-08-01T10:05:07.647Z,1008.64
2022-08-01T10:06:03.670Z,1008.63
2022-08-01T10:07:03.390Z,1008.65
2022-08-01T10:08:03.180Z,1008.63
2022-08-01T10:09:02.973Z,1008.59
2022-08-01T10:10:03.310Z,1008.59
2022-08-01T10:11:03.128Z,1008.60
2022-08-01T10:12:03.682Z,1008.63
2022-08-01T10:13:03.533Z,1008.60
2022-08-01T10:14:03.748Z,1008.63
2022-08-01T10:15:03.395Z,1008.62
2022-08-01T10:16:03.811Z,1008.61
2022-08-01T10:17:05.210Z,1008.60
2022-08-01T10:18:03.623Z,1008.62
2022-08-01T10:19:04.065Z,1008.62
2022-08-01T10:20:03.866Z,1008.63
2022-08-01T10:21:03.797Z,1008.58
2022-08-01T10:22:03.877Z,1008.62
2022-08-01T10:23:06.386Z,1008.64
2022-08-01T10:24:03.555Z,1008.57
2022-08-01T10:25:03.329Z,1008.54
2022-08-01T10:26:03.511Z,1008.51
2022-08-01T10:27:09.546Z,1008.47
2022-08-01T10:28:03.787Z,1008.54
2022-08-01T10:29:04.078Z,1008.52
2022-08-01T10:30:08.476Z,1008.50
2022-08-01T10:31:03.664Z,1008.50
2022-08-01T10:32:05.586Z,1008.52
2022-08-01T10:33:04.031Z,1008.50
2022-08-01T10:34:04.052Z,1008.48
2022-08-01T10:35:06.632Z,1008.47
2022-08-01T10:36:03.750Z,1008.47
2022-08-01T10:37:03.254Z,1008.48
2022-08-01T10:38:02.965Z,1008.43
2022-08-01T10:39:03.037Z,1008.41
2022-08-01T10:40:28.891Z,1008.45
2022-08-01T10:41:06.441Z,1008.43
2022-08-01T10:42:05.870Z,1008.41
2022-08-01T10:43:03.287Z,1008.42
2022-08-01T10:44:03.081Z,1008.37
2022-08-01T10:45:03.223Z,1008.37
2022-08-01T10:46:04.023Z,1008.37
2022-08-01T10:47:03.884Z,1008.34
2022-08-01T10:48:04.277Z,1008.35
2022-08-01T10:49:04.119Z,1008.35
2022-08-01T10:50:04.536Z,1008.35
2022-08-01T10:51:04.386Z,1008.39
2022-08-01T10:52:04.151Z,1008.35
2022-08-01T10:53:08.900Z,1008.32
2022-08-01T10:54:03.779Z,1008.34
2022-08-01T10:55:03.477Z,1008.32
2022-08-01T10:56:03.498Z,1008.35
2022-08-01T10:57:03.816Z,1008.31
2022-08-01T10:58:04.578Z,1008.32
2022-08-01T10:59:06.292Z,1008.33
2022-08-01T11:00:04.517Z,1008.34
2022-08-01T11:01:04.426Z,1008.35
2022-08-01T11:02:04.381Z,1008.31
2022-08-01T11:03:03.161Z,1008.31
2022-08-01T11:04:04.070Z,1008.36
2022-08-01T11:05:04.461Z,1008.35
2022-08-01T11:06:03.659Z,1008.38
2022-08-01T11:07:03.913Z,1008.38
2022-08-01T11:08:03.596Z,1008.38
2022-08-01T11:09:04.020Z,1008.36
2022-08-01T11:10:03.740Z,1008.33
2022-08-01T11:11:03.027Z,1008.33
2022-08-01T11:12:06.141Z,1008.36
2022-08-01T11:13:04.032Z,1008.33
2022-08-01T11:14:03.588Z,1008.34
2022-08-01T11:15:03.627Z,1008.35
2022-08-01T11:16:06.100Z,1008.33
2022-08-01T11:17:03.860Z,1008.36
2022-08-01T11:18:02.739Z,1008.30
2022-08-01T11:19:02.889Z,1008.33
2022-08-01T11:20:02.963Z,1008.27
2022-08-01T11:21:57.267Z,1008.25
2022-08-01T11:22:02.892Z,1008.22
2022-08-01T11:23:03.708Z,1008.27
2022-08-01T11:24:03.446Z,1008.30
2022-08-01T11:25:03.067Z,1008.27
2022-08-01T11:26:10.224Z,1008.28
2022-08-01T11:27:03.065Z,1008.30
2022-08-01T11:28:02.998Z,1008.28
2022-08-01T11:29:19.521Z,1008.30
2022-08-01T11:30:03.355Z,1008.28
2022-08-01T11:31:03.194Z,1008.25
2022-08-01T11:32:03.209Z,1008.24
2022-08-01T11:33:10.568Z,1008.24
2022-08-01T11:34:04.198Z,1008.17
2022-08-01T11:35:04.026Z,1008.20
2022-08-01T11:36:03.846Z,1008.18
2022-08-01T11:37:03.941Z,1008.18
2022-08-01T11:38:04.067Z,1008.22
2022-08-01T11:39:04.194Z,1008.17
2022-08-01T11:40:04.399Z,1008.22
2022-08-01T11:41:04.180Z,1008.24
2022-08-01T11:42:04.175Z,1008.27
2022-08-01T11:43:04.046Z,1008.28
2022-08-01T11:44:04.192Z,1008.28
2022-08-01T11:45:04.693Z,1008.23
2022-08-01T11:46:04.123Z,1008.21
2022-08-01T11:47:08.997Z,1008.21
2022-08-01T11:48:03.386Z,1008.19
2022-08-01T11:49:03.889Z,1008.17
2022-08-01T11:50:04.018Z,1008.15
2022-08-01T11:51:03.748Z,1008.15
2022-08-01T11:52:04.285Z,1008.16
2022-08-01T11:53:03.846Z,1008.16
2022-08-01T11:54:04.142Z,1008.09
2022-08-01T11:55:03.796Z,1008.13
2022-08-01T11:56:04.018Z,1008.17
2022-08-01T11:57:04.014Z,1008.08
2022-08-01T11:58:04.417Z,1008.12
2022-08-01T11:59:04.345Z,1008.11
2022-08-01T12:00:08.495Z,1008.15
2022-08-01T12:01:04.413Z,1008.15
2022-08-01T12:02:04.303Z,1008.13
2022-08-01T12:03:04.598Z,1008.11
2022-08-01T12:04:03.752Z,1008.13
2022-08-01T12:05:05.010Z,1008.08